Davis Monthan Air Force Base
KDMA : now visible

Airfield :











YOU CAN JOIN US ON...

 
LOGIN :

Register | Disclaimer

   EN    FR    IT 

 









Legend :    VFR   Marginal VFR   IFR   Intensive IFR   Very Intensive IFR
Visi :
Ceiling :
>= 8 km
>= 3000ft
5 to 8 km
1000 to 3000 ft
1500m to 5 km
500 to 1000 ft
800 to 1500m
200 to 500 ft
< 800m
< 200 ft
Symbols :   Thunderstorms  Fog  Heavy snow  Heavy precipitations  Wind > 20 kt







- Airport Elevation : 2704 ft


KDMA - Davis Monthan Air Force Base

CURRENT METAR :
  • 160558Z AUTO 10010KT 10SM CLR 25/17 A2998 RMK AO2 SLP112 T02500174 10317 20248 52012 $

EXPIRED METARs :
  • 160458Z AUTO 11007KT 10SM CLR 25/18 A2998 RMK AO2 SLP114 T02510180 $
  • 160358Z AUTO 00000KT 10SM CLR 26/19 A2996 RMK AO2 SLP107 T02590185 $

TAF TAF KDMA
Valid from the 16 at 06:00 until the 17 at 12:00 UTC


160601Z 1606/1712 14009KT 9999 FEW070 QNH2996INS
BECMG 1620/1621 31008KT 9999 SCT100 QNH2993INS
TEMPO 1621/1702 31012G18KT 9000 -SHRA
BECMG 1702/1703 14006KT 9999 FEW080 SCT130 QNH2997INS
BECMG 1708/1709 15009KT 9999 SKC QNH2997INS TX34/1621Z TN19/1611Z
No reported NOTAMs for that airfield.



MET'MAP, your aeronautical weather chart ! - Copyright ORBIFLY December 2007 - Disclaimer

ORBIFLY MET'MAP TEAM :

Programming & Development : Alexandra Zaïnal
Concept & Development : Baudouin d'Aumeries
Co-Development & Prog : Marc-Olivier Méhu
Technical & hardware support : Manuel Goepfert

Contact : metmap@orbifly.com




SOURCES & CREDITS :

   NOAA       Earth
Advisory